Time;durP1;ratioP1;P1;durP2;ratioP2;P2;SDS_P1;SDS_P2;PMS_P1;PMS_P2;Temp;Humidity;BMP_temperature;BMP_pressure;BME280_temperature;BME280_humidity;BME280_pressure;Samples;Min_cycle;Max_cycle;Signal;HPM_P1;HPM_P2
2021/06/05 00:00:56;;;;;;;3.50;3.20;;;25.40;52.00;;;;;;4975753;28;20425;-81
2021/06/05 00:03:23;;;;;;;4.47;3.63;;;25.40;52.00;;;;;;5008322;28;20177;-80
2021/06/05 00:05:57;;;;;;;4.43;4.03;;;25.40;52.00;;;;;;4996196;28;20409;-79
2021/06/05 00:08:25;;;;;;;4.03;3.73;;;25.40;52.10;;;;;;4995113;28;20409;-80
2021/06/05 00:10:55;;;;;;;4.30;3.90;;;25.40;52.10;;;;;;4995114;28;20445;-80
2021/06/05 00:13:36;;;;;;;4.40;4.00;;;25.40;52.20;;;;;;4994829;28;20402;-80
2021/06/05 00:16:04;;;;;;;4.10;3.70;;;25.40;52.10;;;;;;4994956;28;20436;-80
2021/06/05 00:18:31;;;;;;;5.13;4.17;;;25.40;52.20;;;;;;4994788;28;20460;-80
2021/06/05 00:20:58;;;;;;;3.97;3.67;;;25.40;52.30;;;;;;4975674;28;20421;-80
2021/06/05 00:23:25;;;;;;;4.30;3.90;;;25.40;52.30;;;;;;4975485;28;20450;-80
2021/06/05 00:25:53;;;;;;;4.40;4.00;;;25.40;52.30;;;;;;4974989;28;20414;-80
2021/06/05 00:28:21;;;;;;;4.30;3.90;;;25.40;52.30;;;;;;4977080;29;20403;-81
2021/06/05 00:30:53;;;;;;;4.97;4.47;;;25.40;52.20;;;;;;4974834;28;20446;-81
2021/06/05 00:33:23;;;;;;;4.03;3.73;;;25.40;52.20;;;;;;4975214;28;20434;-80
2021/06/05 00:35:53;;;;;;;4.00;3.70;;;25.40;52.20;;;;;;4991475;28;20421;-80
2021/06/05 00:38:21;;;;;;;3.80;3.50;;;25.40;52.30;;;;;;4978561;28;20524;-81
2021/06/05 00:40:53;;;;;;;4.20;3.80;;;25.40;52.30;;;;;;4978066;28;20431;-79
2021/06/05 00:43:30;;;;;;;4.20;3.90;;;25.40;52.30;;;;;;4978564;28;20437;-80
2021/06/05 00:45:56;;;;;;;4.07;3.70;;;25.40;52.20;;;;;;4977298;28;20433;-80
2021/06/05 00:48:23;;;;;;;4.20;3.70;;;25.40;52.30;;;;;;4977523;28;20435;-80
2021/06/05 00:50:54;;;;;;;3.67;3.37;;;25.40;52.30;;;;;;4979216;28;20523;-81
2021/06/05 00:53:29;;;;;;;4.40;4.00;;;25.40;52.30;;;;;;4997387;28;20405;-81
2021/06/05 00:56:00;;;;;;;4.20;3.90;;;25.40;52.30;;;;;;4997260;28;20393;-81
2021/06/05 00:58:30;;;;;;;3.33;3.07;;;25.40;52.30;;;;;;4980402;28;20468;-81
2021/06/05 01:01:05;;;;;;;3.93;3.60;;;25.40;52.30;;;;;;4980086;28;20397;-81
2021/06/05 01:03:38;;;;;;;3.93;3.63;;;25.40;52.30;;;;;;4997003;28;20413;-81
2021/06/05 01:06:43;;;;;;;4.57;4.17;;;25.40;52.40;;;;;;4980020;28;20417;-81
2021/06/05 01:12:30;;;;;;;4.20;3.90;;;25.40;52.40;;;;;;4991998;28;20413;-81
2021/06/05 01:15:36;;;;;;;4.43;4.03;;;25.30;52.30;;;;;;4997322;28;20504;-81
2021/06/05 01:18:07;;;;;;;4.20;3.80;;;25.40;52.40;;;;;;4979587;28;20224;-81
2021/06/05 01:21:00;;;;;;;3.90;3.53;;;25.30;52.30;;;;;;4980134;28;20421;-81
2021/06/05 01:23:44;;;;;;;4.60;4.23;;;25.40;52.30;;;;;;4996023;28;20405;-81
2021/06/05 01:26:21;;;;;;;3.70;3.40;;;25.30;52.30;;;;;;4996792;28;20414;-81
2021/06/05 01:29:15;;;;;;;5.70;5.20;;;25.30;52.40;;;;;;4996498;28;20413;-81
2021/06/05 01:32:01;;;;;;;4.57;4.00;;;25.30;52.40;;;;;;4979950;28;20417;-81
2021/06/05 01:34:35;;;;;;;3.97;3.60;;;25.30;52.40;;;;;;4979701;28;20405;-81
2021/06/05 01:37:13;;;;;;;4.77;4.30;;;25.30;52.40;;;;;;4996930;28;20407;-81
2021/06/05 01:39:49;;;;;;;4.07;3.77;;;25.30;52.40;;;;;;4979712;28;20412;-81
2021/06/05 01:42:32;;;;;;;4.60;4.20;;;25.30;52.30;;;;;;4996173;28;20408;-81
2021/06/05 01:45:01;;;;;;;4.63;4.13;;;25.40;52.40;;;;;;4996661;28;20386;-82
2021/06/05 01:47:29;;;;;;;3.90;3.60;;;25.30;52.30;;;;;;4996373;28;20403;-81
2021/06/05 01:50:07;;;;;;;4.97;4.23;;;25.30;52.30;;;;;;4996435;28;20486;-81
2021/06/05 01:56:34;;;;;;;4.57;4.13;;;25.40;52.30;;;;;;4996603;28;20393;-81
2021/06/05 01:59:00;;;;;;;4.03;3.73;;;25.30;52.30;;;;;;4917918;29;20500;-81
2021/06/05 02:01:27;;;;;;;4.53;4.13;;;25.30;52.30;;;;;;4918130;29;20454;-81
2021/06/05 02:03:55;;;;;;;5.23;4.10;;;25.30;52.30;;;;;;4917726;29;20409;-81
2021/06/05 02:06:23;;;;;;;4.40;4.00;;;25.30;52.20;;;;;;4917717;29;20417;-81
2021/06/05 02:08:49;;;;;;;4.33;4.00;;;25.30;52.30;;;;;;4902396;29;20430;-81
2021/06/05 02:11:18;;;;;;;6.40;4.57;;;25.30;52.30;;;;;;4902313;29;20427;-81
2021/06/05 02:14:01;;;;;;;4.63;4.17;;;25.30;52.40;;;;;;4917855;29;20409;-81
2021/06/05 02:16:47;;;;;;;4.57;4.27;;;25.30;52.30;;;;;;4917818;29;20437;-81
2021/06/05 02:19:35;;;;;;;4.47;4.13;;;25.30;52.30;;;;;;4902465;29;20452;-81
2021/06/05 02:22:06;;;;;;;3.97;3.67;;;25.30;52.40;;;;;;4902160;29;20421;-81
2021/06/05 02:24:51;;;;;;;4.90;4.50;;;25.30;52.30;;;;;;4916730;29;20409;-80
2021/06/05 02:27:19;;;;;;;4.70;4.30;;;25.30;52.40;;;;;;4915488;29;20417;-80
2021/06/05 02:29:47;;;;;;;4.70;4.10;;;25.30;52.40;;;;;;4896571;29;20421;-80
2021/06/05 02:32:17;;;;;;;5.00;4.50;;;25.30;52.60;;;;;;4895925;29;20507;-79
2021/06/05 02:34:45;;;;;;;4.53;4.13;;;25.30;52.50;;;;;;4941315;28;20496;-79
2021/06/05 02:37:17;;;;;;;5.10;4.57;;;25.30;52.50;;;;;;4972717;28;20413;-80
2021/06/05 02:39:43;;;;;;;4.97;4.03;;;25.30;52.70;;;;;;4972699;28;20412;-79
2021/06/05 02:42:17;;;;;;;5.10;4.60;;;25.30;52.70;;;;;;4989989;28;20449;-79
2021/06/05 02:44:46;;;;;;;4.10;3.80;;;25.30;52.60;;;;;;4972487;28;20437;-79
2021/06/05 02:47:13;;;;;;;4.50;4.10;;;25.30;52.50;;;;;;4971951;28;20413;-80
2021/06/05 02:49:39;;;;;;;4.40;4.00;;;25.30;52.60;;;;;;4989857;28;20409;-79
2021/06/05 02:52:28;;;;;;;4.57;4.17;;;25.30;52.60;;;;;;4972246;28;20477;-80
2021/06/05 02:55:03;;;;;;;5.13;4.67;;;25.30;52.60;;;;;;4959394;28;20417;-80
2021/06/05 02:57:30;;;;;;;4.97;4.57;;;25.30;52.70;;;;;;4988290;28;20464;-80
2021/06/05 02:59:59;;;;;;;5.83;5.10;;;25.30;52.70;;;;;;4990593;28;20401;-79
2021/06/05 03:02:25;;;;;;;4.63;4.00;;;25.30;52.70;;;;;;4973191;28;20424;-80
2021/06/05 03:04:51;;;;;;;5.20;4.70;;;25.30;52.80;;;;;;4973336;28;20788;-79
2021/06/05 03:07:17;;;;;;;4.70;4.30;;;25.30;52.70;;;;;;4973830;28;20571;-79
2021/06/05 03:09:43;;;;;;;4.83;4.33;;;25.30;52.80;;;;;;4990547;28;20416;-80
2021/06/05 03:12:12;;;;;;;5.50;5.00;;;25.30;52.80;;;;;;4992799;28;20425;-79
2021/06/05 03:14:39;;;;;;;4.63;4.23;;;25.30;52.70;;;;;;4976767;28;20424;-79
2021/06/05 03:17:07;;;;;;;5.00;4.60;;;25.30;52.70;;;;;;4993449;28;20405;-79
2021/06/05 03:19:33;;;;;;;4.53;4.23;;;25.30;52.70;;;;;;4976456;28;20472;-80
2021/06/05 03:21:59;;;;;;;4.40;4.00;;;25.30;52.70;;;;;;4992518;28;20420;-79
2021/06/05 03:24:25;;;;;;;4.73;4.33;;;25.30;52.80;;;;;;4977141;28;20409;-79
2021/06/05 03:26:52;;;;;;;4.90;4.50;;;25.30;52.80;;;;;;4977320;28;20197;-79
2021/06/05 03:29:18;;;;;;;4.97;4.57;;;25.30;52.80;;;;;;4976249;28;20887;-79
2021/06/05 03:31:46;;;;;;;5.30;4.80;;;25.30;52.90;;;;;;4975811;28;20436;-79
2021/06/05 03:34:12;;;;;;;4.87;4.37;;;25.30;53.00;;;;;;4993394;28;20201;-79
2021/06/05 03:36:41;;;;;;;4.97;4.53;;;25.30;53.00;;;;;;4993640;28;20867;-79
2021/06/05 03:39:08;;;;;;;6.13;4.67;;;25.20;53.00;;;;;;4992980;28;20205;-80
2021/06/05 03:41:35;;;;;;;6.03;4.30;;;25.20;53.00;;;;;;4975774;28;20473;-80
2021/06/05 03:44:01;;;;;;;4.50;4.10;;;25.20;53.00;;;;;;4993623;28;20420;-79
2021/06/05 03:46:28;;;;;;;4.50;4.10;;;25.20;53.00;;;;;;4975555;28;20449;-79
2021/06/05 03:48:54;;;;;;;4.17;3.87;;;25.20;53.00;;;;;;4976057;28;20918;-79
2021/06/05 03:51:20;;;;;;;5.80;4.87;;;25.20;52.90;;;;;;4975567;28;20429;-79
2021/06/05 03:53:46;;;;;;;4.47;4.07;;;25.20;53.00;;;;;;4975942;28;20429;-79
2021/06/05 03:56:11;;;;;;;4.93;4.50;;;25.20;52.90;;;;;;4976190;28;20193;-79
2021/06/05 03:58:41;;;;;;;4.70;4.20;;;25.20;52.90;;;;;;4993378;28;20193;-79
2021/06/05 04:01:34;;;;;;;5.03;4.40;;;25.20;52.90;;;;;;4975636;28;20241;-79
2021/06/05 04:03:59;;;;;;;4.40;4.10;;;25.20;52.90;;;;;;4978530;28;20499;-79
2021/06/05 04:06:26;;;;;;;4.87;4.47;;;25.20;53.00;;;;;;4993107;28;20409;-79
2021/06/05 04:08:53;;;;;;;4.97;4.53;;;25.20;53.00;;;;;;4992640;28;20173;-80
2021/06/05 04:11:20;;;;;;;5.20;4.70;;;25.20;52.90;;;;;;4993230;28;20413;-79
2021/06/05 04:13:46;;;;;;;5.30;4.07;;;25.20;52.90;;;;;;4975900;28;20778;-79
2021/06/05 04:16:13;;;;;;;4.60;4.30;;;25.20;52.90;;;;;;4976649;28;20421;-80
2021/06/05 04:18:42;;;;;;;4.60;4.13;;;25.20;52.80;;;;;;4993611;28;20194;-80
2021/06/05 04:21:11;;;;;;;5.00;4.60;;;25.20;52.90;;;;;;4995131;28;20405;-80
2021/06/05 04:23:38;;;;;;;3.97;3.67;;;25.20;52.70;;;;;;4977530;28;20421;-80
2021/06/05 04:26:05;;;;;;;4.20;3.90;;;25.20;52.60;;;;;;4962326;28;20429;-79
2021/06/05 04:28:35;;;;;;;5.60;4.80;;;25.30;52.60;;;;;;4978155;28;20417;-80
2021/06/05 04:31:01;;;;;;;5.07;4.60;;;25.20;52.50;;;;;;4993447;28;20414;-79
2021/06/05 04:33:28;;;;;;;3.87;3.57;;;25.30;52.60;;;;;;4977404;28;20505;-80
2021/06/05 04:35:59;;;;;;;4.80;4.40;;;25.30;53.10;;;;;;4978544;28;20429;-80
2021/06/05 04:38:25;;;;;;;4.23;3.93;;;25.30;52.60;;;;;;4994437;28;20512;-79
2021/06/05 04:40:52;;;;;;;5.03;4.07;;;25.30;52.50;;;;;;4977613;28;20441;-79
2021/06/05 04:43:18;;;;;;;5.07;4.67;;;25.40;52.60;;;;;;4962635;28;20432;-80
2021/06/05 04:45:45;;;;;;;4.30;3.80;;;25.30;52.50;;;;;;4963240;28;20899;-79
2021/06/05 04:48:13;;;;;;;4.83;4.40;;;25.30;52.50;;;;;;4996259;28;20448;-80
2021/06/05 04:50:40;;;;;;;4.23;3.93;;;25.40;52.60;;;;;;4994720;28;20445;-80
2021/06/05 04:53:06;;;;;;;4.53;4.13;;;25.40;52.60;;;;;;4995291;28;20421;-81
2021/06/05 04:55:34;;;;;;;4.67;4.37;;;25.40;52.60;;;;;;4978636;28;20443;-80
2021/06/05 04:58:05;;;;;;;4.97;4.20;;;25.40;52.60;;;;;;4995197;28;20506;-81
2021/06/05 05:00:45;;;;;;;4.53;4.13;;;25.40;52.60;;;;;;4978010;28;20451;-80
2021/06/05 05:03:15;;;;;;;4.90;4.50;;;25.40;52.60;;;;;;4994632;28;20417;-80
2021/06/05 05:05:41;;;;;;;5.03;4.63;;;25.40;52.50;;;;;;4994837;28;20468;-80
2021/06/05 05:08:09;;;;;;;4.47;4.07;;;25.40;52.50;;;;;;4995299;28;20497;-80
2021/06/05 05:10:38;;;;;;;4.43;4.03;;;25.40;52.50;;;;;;4980060;28;20449;-80
2021/06/05 05:13:04;;;;;;;4.70;4.30;;;25.40;52.50;;;;;;4978497;28;20505;-79
2021/06/05 05:15:31;;;;;;;5.57;5.07;;;25.40;52.60;;;;;;4995761;28;20429;-79
2021/06/05 05:17:57;;;;;;;4.17;3.83;;;25.40;52.60;;;;;;4995586;28;20473;-81
2021/06/05 05:20:30;;;;;;;4.40;4.00;;;25.40;52.60;;;;;;4995961;28;20406;-81
2021/06/05 05:22:56;;;;;;;5.03;4.73;;;25.40;52.80;;;;;;4995268;28;20457;-80
2021/06/05 05:25:22;;;;;;;7.23;4.83;;;25.40;52.80;;;;;;4977842;28;20409;-81
2021/06/05 05:27:48;;;;;;;4.93;4.53;;;25.40;52.80;;;;;;4994987;28;20170;-80
2021/06/05 05:30:27;;;;;;;4.80;4.40;;;25.40;52.70;;;;;;4994186;28;20461;-81
2021/06/05 05:32:52;;;;;;;4.33;4.03;;;25.40;52.70;;;;;;4994371;28;20429;-81
2021/06/05 05:35:18;;;;;;;4.50;4.10;;;25.40;52.70;;;;;;4994722;28;20416;-80
2021/06/05 05:37:45;;;;;;;7.20;4.60;;;25.40;52.80;;;;;;4978860;28;20197;-82
2021/06/05 05:40:15;;;;;;;4.47;4.07;;;25.40;52.80;;;;;;4994241;28;20417;-80
2021/06/05 05:42:40;;;;;;;5.13;4.60;;;25.40;52.70;;;;;;4995284;28;20409;-80
2021/06/05 05:45:08;;;;;;;7.90;4.43;;;25.40;52.90;;;;;;4995542;28;20473;-79
2021/06/05 05:47:34;;;;;;;7.70;4.03;;;25.40;52.80;;;;;;4993259;28;20307;-79
2021/06/05 05:50:06;;;;;;;4.23;3.93;;;25.40;52.90;;;;;;4990607;28;20986;-79
2021/06/05 05:52:32;;;;;;;4.77;4.37;;;25.40;52.80;;;;;;4991482;28;20417;-79
2021/06/05 05:54:58;;;;;;;4.23;3.83;;;25.40;52.90;;;;;;4990239;28;20477;-78
2021/06/05 05:57:24;;;;;;;5.60;4.30;;;25.40;52.90;;;;;;4993709;28;20495;-80
2021/06/05 05:59:56;;;;;;;4.67;4.27;;;25.40;53.00;;;;;;4995162;28;20170;-80
2021/06/05 06:02:25;;;;;;;5.40;4.90;;;25.50;53.10;;;;;;4994999;28;20405;-81
2021/06/05 06:04:51;;;;;;;4.43;4.03;;;25.50;53.10;;;;;;4993780;28;20409;-81
2021/06/05 06:07:16;;;;;;;4.87;4.47;;;25.50;53.10;;;;;;4977851;28;20492;-80
2021/06/05 06:09:42;;;;;;;5.13;4.63;;;25.50;53.00;;;;;;4994471;28;20417;-81
2021/06/05 06:12:09;;;;;;;4.80;4.20;;;25.50;53.00;;;;;;4994395;28;20181;-79
2021/06/05 06:14:35;;;;;;;4.57;4.00;;;25.50;53.00;;;;;;5013566;28;20183;-81
2021/06/05 06:17:02;;;;;;;4.83;4.20;;;25.50;53.00;;;;;;5013830;28;20420;-83
2021/06/05 06:19:42;;;;;;;4.70;4.30;;;25.50;53.00;;;;;;5014140;28;20455;-89
2021/06/05 06:22:09;;;;;;;4.73;4.30;;;25.50;53.10;;;;;;5014514;28;20421;-82
2021/06/05 06:27:57;;;;;;;4.50;3.93;;;25.50;53.00;;;;;;5013880;28;20408;-81
2021/06/05 06:30:29;;;;;;;4.70;4.23;;;25.50;53.10;;;;;;4997556;28;20400;-80
2021/06/05 06:32:55;;;;;;;4.27;3.87;;;25.50;53.10;;;;;;4996984;28;20172;-79
2021/06/05 06:35:22;;;;;;;3.70;3.40;;;25.50;53.10;;;;;;5013110;28;20424;-83
2021/06/05 06:37:52;;;;;;;4.40;4.00;;;25.50;53.00;;;;;;4996814;28;20459;-80
2021/06/05 06:40:23;;;;;;;4.97;4.47;;;25.50;53.00;;;;;;4996963;28;20484;-81
2021/06/05 06:42:49;;;;;;;6.80;5.27;;;25.50;53.10;;;;;;5013983;28;20404;-80
2021/06/05 06:45:16;;;;;;;4.77;3.87;;;25.50;53.10;;;;;;4996185;28;20435;-80
2021/06/05 06:47:42;;;;;;;5.13;4.13;;;25.50;53.00;;;;;;5015189;28;20412;-79
2021/06/05 06:50:10;;;;;;;6.70;3.77;;;25.50;53.00;;;;;;4996650;28;20427;-79
2021/06/05 06:52:36;;;;;;;5.03;3.53;;;25.50;52.90;;;;;;4981119;28;20822;-79
2021/06/05 06:55:01;;;;;;;7.97;3.93;;;25.50;52.90;;;;;;5014356;28;20443;-79
2021/06/05 06:57:27;;;;;;;5.43;3.87;;;25.50;52.90;;;;;;5014451;28;20451;-79
2021/06/05 06:59:53;;;;;;;4.63;4.23;;;25.50;52.90;;;;;;5013959;28;20191;-79
2021/06/05 07:02:19;;;;;;;4.90;4.50;;;25.50;52.90;;;;;;5013434;28;20173;-79
2021/06/05 07:05:19;;;;;;;5.00;3.80;;;25.50;53.00;;;;;;4997160;28;20228;-79
2021/06/05 07:08:20;;;;;;;4.10;3.80;;;25.50;52.90;;;;;;5013887;28;20189;-79
2021/06/05 07:10:52;;;;;;;5.17;4.33;;;25.50;53.00;;;;;;5014294;28;20400;-79
2021/06/05 07:13:24;;;;;;;3.70;3.40;;;25.50;53.00;;;;;;5014062;28;20420;-79
2021/06/05 07:15:56;;;;;;;5.20;3.63;;;25.50;53.00;;;;;;5014115;28;20416;-79
2021/06/05 07:18:29;;;;;;;4.40;4.00;;;25.50;53.00;;;;;;5014044;28;20447;-79
2021/06/05 07:20:55;;;;;;;5.17;4.03;;;25.50;53.00;;;;;;4996382;28;20431;-79
2021/06/05 07:23:27;;;;;;;4.73;4.07;;;25.50;53.00;;;;;;5014094;28;20404;-79
2021/06/05 07:25:54;;;;;;;4.30;3.90;;;25.50;52.90;;;;;;4980023;28;20413;-79
2021/06/05 07:28:22;;;;;;;3.70;3.40;;;25.50;53.00;;;;;;4996784;28;20495;-79
2021/06/05 07:30:48;;;;;;;3.70;3.23;;;25.50;53.00;;;;;;5012699;28;20427;-79
2021/06/05 07:33:15;;;;;;;5.67;4.03;;;25.50;53.00;;;;;;4996408;28;20408;-78
2021/06/05 07:35:41;;;;;;;4.40;4.00;;;25.60;53.00;;;;;;4996163;28;20770;-79
2021/06/05 07:38:08;;;;;;;7.30;3.97;;;25.60;53.00;;;;;;4995901;28;20463;-79
2021/06/05 07:40:37;;;;;;;3.77;3.47;;;25.60;53.00;;;;;;5012684;28;20408;-79
2021/06/05 07:43:06;;;;;;;3.93;3.30;;;25.60;53.00;;;;;;4979968;28;20420;-79
2021/06/05 07:45:33;;;;;;;6.70;3.53;;;25.60;53.00;;;;;;4996093;28;20512;-79
2021/06/05 07:47:58;;;;;;;4.87;4.37;;;25.60;53.00;;;;;;5012997;28;20413;-79
2021/06/05 07:50:33;;;;;;;3.90;3.60;;;25.60;53.00;;;;;;5012273;28;20431;-79
2021/06/05 07:53:08;;;;;;;3.90;3.60;;;25.60;53.00;;;;;;5012819;28;20156;-78
2021/06/05 07:55:34;;;;;;;4.17;3.77;;;25.60;53.00;;;;;;4995462;28;20419;-79
2021/06/05 07:58:06;;;;;;;3.70;3.40;;;25.60;53.00;;;;;;5012536;28;20491;-79
2021/06/05 08:00:34;;;;;;;3.77;3.47;;;25.60;53.00;;;;;;5012675;28;20161;-79
2021/06/05 08:03:00;;;;;;;4.40;3.83;;;25.60;53.00;;;;;;4996092;28;20427;-81
2021/06/05 08:05:29;;;;;;;4.00;3.70;;;25.60;52.90;;;;;;4998136;28;20416;-81
2021/06/05 08:07:55;;;;;;;3.90;3.37;;;25.60;53.00;;;;;;5015177;28;20173;-81
2021/06/05 08:10:26;;;;;;;4.03;3.73;;;25.60;53.00;;;;;;5014066;28;20427;-81
2021/06/05 08:12:58;;;;;;;4.20;3.27;;;25.60;52.90;;;;;;5010950;28;20169;-78
2021/06/05 08:15:27;;;;;;;4.03;3.40;;;25.60;53.00;;;;;;4993566;28;20423;-79
2021/06/05 08:17:53;;;;;;;3.83;3.50;;;25.60;53.00;;;;;;5011211;28;20463;-79
2021/06/05 08:20:36;;;;;;;3.63;3.33;;;25.60;53.00;;;;;;4994319;28;20435;-79
2021/06/05 08:23:04;;;;;;;3.87;3.50;;;25.60;53.00;;;;;;5013380;28;20439;-80
2021/06/05 08:25:30;;;;;;;4.87;3.80;;;25.60;52.90;;;;;;4997303;28;20780;-80
2021/06/05 08:27:58;;;;;;;3.60;3.30;;;25.60;53.00;;;;;;5015311;28;20455;-80
2021/06/05 08:30:44;;;;;;;3.80;3.50;;;25.60;53.00;;;;;;4996755;28;20452;-80
2021/06/05 08:33:20;;;;;;;3.50;3.20;;;25.70;53.00;;;;;;5013359;28;20423;-80
2021/06/05 08:35:46;;;;;;;3.23;3.00;;;25.60;52.90;;;;;;4997749;28;20443;-80
2021/06/05 08:38:15;;;;;;;3.20;2.90;;;25.60;52.90;;;;;;4997073;28;20464;-80
2021/06/05 08:40:50;;;;;;;3.60;3.30;;;25.60;53.00;;;;;;4997046;28;20544;-80
2021/06/05 08:46:29;;;;;;;3.50;3.20;;;25.70;53.00;;;;;;5013694;28;20395;-80
2021/06/05 08:48:58;;;;;;;3.60;3.30;;;25.60;53.00;;;;;;4996641;28;20443;-80
2021/06/05 08:52:05;;;;;;;3.40;3.10;;;25.60;53.00;;;;;;5013912;28;20416;-80
2021/06/05 08:54:31;;;;;;;3.47;3.17;;;25.60;52.90;;;;;;5013755;28;20404;-80
2021/06/05 08:57:32;;;;;;;3.30;3.00;;;25.60;53.00;;;;;;5012539;28;20416;-80
2021/06/05 09:00:24;;;;;;;4.20;3.33;;;25.60;53.00;;;;;;5012799;28;20188;-80
2021/06/05 09:02:57;;;;;;;3.47;3.17;;;25.60;53.10;;;;;;5014062;28;20407;-80
2021/06/05 09:05:35;;;;;;;3.60;3.20;;;25.60;53.10;;;;;;4995731;28;20415;-80
2021/06/05 09:08:15;;;;;;;4.40;3.07;;;25.60;53.60;;;;;;5012794;28;20397;-80
2021/06/05 09:10:48;;;;;;;3.23;3.00;;;25.60;53.10;;;;;;5012753;28;20755;-79
2021/06/05 09:13:15;;;;;;;3.40;3.10;;;25.60;53.00;;;;;;5013065;28;20419;-79
2021/06/05 09:15:44;;;;;;;3.30;3.10;;;25.60;53.60;;;;;;4996102;28;20413;-80
2021/06/05 09:18:12;;;;;;;3.17;2.93;;;25.60;53.10;;;;;;5011744;28;20836;-80
2021/06/05 09:21:11;;;;;;;3.90;3.60;;;25.60;53.10;;;;;;4995920;28;20412;-79
2021/06/05 09:27:15;;;;;;;3.70;3.40;;;25.70;53.10;;;;;;5012883;28;20767;-80
2021/06/05 09:30:08;;;;;;;3.30;3.10;;;25.60;53.10;;;;;;5012806;28;20392;-81
2021/06/05 09:32:41;;;;;;;3.43;3.13;;;25.60;53.10;;;;;;5013168;28;20427;-81
2021/06/05 09:38:25;;;;;;;3.43;3.13;;;25.60;53.10;;;;;;5012960;28;20450;-81
2021/06/05 09:41:09;;;;;;;3.00;2.70;;;25.60;53.00;;;;;;5011576;28;20432;-81
2021/06/05 09:43:40;;;;;;;3.43;3.13;;;25.60;53.00;;;;;;5012102;28;20476;-81
2021/06/05 09:46:32;;;;;;;3.30;3.00;;;25.60;53.00;;;;;;5003611;28;20417;-81
2021/06/05 09:49:27;;;;;;;4.33;3.57;;;25.70;53.10;;;;;;4976756;28;20413;-80
2021/06/05 09:52:24;;;;;;;4.70;3.70;;;25.70;53.10;;;;;;4993793;28;20436;-81
2021/06/05 09:54:54;;;;;;;3.00;2.80;;;25.60;53.00;;;;;;4992811;28;20872;-81
2021/06/05 09:57:36;;;;;;;4.27;3.07;;;25.60;53.00;;;;;;4993020;28;20498;-80
2021/06/05 10:00:14;;;;;;;3.33;3.03;;;25.70;53.10;;;;;;4991256;28;20448;-80
2021/06/05 10:02:44;;;;;;;3.43;3.20;;;25.60;53.10;;;;;;4992795;28;20401;-81
2021/06/05 10:05:48;;;;;;;3.50;3.20;;;25.70;53.10;;;;;;4992182;28;20456;-81
2021/06/05 10:08:32;;;;;;;3.13;2.83;;;25.70;53.10;;;;;;4992983;28;20401;-81
2021/06/05 10:11:32;;;;;;;3.20;2.90;;;25.60;53.00;;;;;;4975550;28;20425;-81
2021/06/05 10:14:18;;;;;;;2.90;2.70;;;25.70;53.10;;;;;;4992833;28;20405;-80
2021/06/05 10:16:52;;;;;;;2.70;2.50;;;25.70;53.10;;;;;;4993145;28;20401;-81
2021/06/05 10:19:49;;;;;;;3.40;3.10;;;25.60;53.10;;;;;;4991607;28;20456;-80
2021/06/05 10:22:15;;;;;;;2.97;2.77;;;25.70;53.10;;;;;;4973240;28;20428;-80
2021/06/05 10:24:59;;;;;;;3.60;3.30;;;25.60;53.10;;;;;;5013443;28;20440;-80
2021/06/05 10:27:35;;;;;;;3.03;2.83;;;25.70;53.10;;;;;;4999345;28;20463;-79
2021/06/05 10:30:08;;;;;;;3.27;3.03;;;25.70;53.20;;;;;;4999502;28;20424;-80
2021/06/05 10:32:40;;;;;;;3.00;2.70;;;25.70;53.20;;;;;;5017055;28;20902;-79
2021/06/05 10:35:36;;;;;;;2.87;2.67;;;25.70;53.10;;;;;;5015678;28;20423;-79
2021/06/05 10:38:10;;;;;;;2.83;2.60;;;25.70;53.10;;;;;;5016613;28;20515;-79
2021/06/05 10:40:37;;;;;;;3.03;2.83;;;25.70;53.10;;;;;;4999285;28;20934;-80
2021/06/05 10:43:07;;;;;;;3.00;2.80;;;25.70;53.10;;;;;;5008000;28;20405;-80
2021/06/05 10:45:44;;;;;;;2.60;2.40;;;25.70;53.10;;;;;;4979891;28;20420;-80
2021/06/05 10:48:33;;;;;;;2.70;2.50;;;25.70;53.10;;;;;;4997200;28;20397;-79
2021/06/05 10:50:59;;;;;;;3.90;3.13;;;25.70;53.10;;;;;;4997570;28;20729;-80
2021/06/05 10:53:52;;;;;;;3.03;2.80;;;25.70;53.10;;;;;;4996784;28;20432;-80
2021/06/05 10:56:55;;;;;;;3.20;3.00;;;25.80;53.10;;;;;;4996708;28;20268;-81
2021/06/05 10:59:48;;;;;;;3.00;2.80;;;25.70;53.10;;;;;;4978881;28;20464;-81
2021/06/05 11:02:43;;;;;;;3.43;2.87;;;25.70;53.10;;;;;;4996796;28;20417;-81
2021/06/05 11:05:24;;;;;;;3.40;3.10;;;25.70;53.10;;;;;;4979425;28;20516;-81
2021/06/05 11:08:18;;;;;;;3.80;3.50;;;25.70;53.10;;;;;;4996354;28;20397;-81
2021/06/05 11:10:46;;;;;;;3.40;3.10;;;25.70;53.10;;;;;;4997247;28;20425;-80
2021/06/05 11:13:44;;;;;;;2.80;2.60;;;25.70;53.20;;;;;;4996802;28;20463;-81
2021/06/05 11:16:39;;;;;;;2.83;2.63;;;25.70;53.10;;;;;;4982203;28;20472;-80
2021/06/05 11:19:04;;;;;;;3.33;3.03;;;25.70;53.10;;;;;;4981183;28;20456;-80
2021/06/05 11:22:15;;;;;;;2.80;2.60;;;25.70;53.20;;;;;;4999924;28;20451;-80
2021/06/05 11:24:45;;;;;;;2.70;2.50;;;25.70;53.10;;;;;;4980514;28;20158;-81
2021/06/05 11:27:36;;;;;;;3.07;2.67;;;25.70;53.10;;;;;;4979188;28;20425;-79
2021/06/05 11:30:22;;;;;;;2.70;2.50;;;25.70;53.10;;;;;;4994453;28;20421;-77
2021/06/05 11:32:54;;;;;;;2.70;2.50;;;25.70;53.20;;;;;;4976595;28;20408;-77
2021/06/05 11:36:09;;;;;;;;;;;;;;;;;;;;;
2021/06/05 11:38:41;;;;;;;3.10;2.90;;;25.70;53.10;;;;;;4994714;28;20469;-79
2021/06/05 11:41:52;;;;;;;2.97;2.77;;;25.70;53.30;;;;;;4976749;28;20464;-78
2021/06/05 11:44:37;;;;;;;3.20;2.90;;;25.80;53.30;;;;;;4995724;28;20449;-78
2021/06/05 11:47:18;;;;;;;3.07;2.77;;;25.70;53.20;;;;;;4978322;28;20409;-78
2021/06/05 11:49:53;;;;;;;3.17;2.87;;;25.70;53.20;;;;;;4977859;28;20424;-78
2021/06/05 11:52:34;;;;;;;3.20;2.90;;;25.70;53.80;;;;;;4978170;28;20906;-78
2021/06/05 11:55:25;;;;;;;3.33;2.90;;;25.80;53.10;;;;;;4977133;28;20425;-78
2021/06/05 11:58:22;;;;;;;2.97;2.77;;;25.80;53.20;;;;;;4977603;28;20537;-79
2021/06/05 12:01:13;;;;;;;3.17;2.97;;;25.80;53.20;;;;;;4981861;28;20425;-78
2021/06/05 12:04:10;;;;;;;2.70;2.50;;;25.80;53.10;;;;;;4990165;28;20455;-78
2021/06/05 12:06:48;;;;;;;3.00;2.80;;;25.80;53.20;;;;;;4975120;28;20420;-79
2021/06/05 12:09:25;;;;;;;3.70;3.40;;;25.80;53.20;;;;;;4974962;28;20452;-79
2021/06/05 12:12:15;;;;;;;2.83;2.63;;;25.80;53.20;;;;;;4974930;28;20507;-78
2021/06/05 12:14:48;;;;;;;3.37;3.07;;;25.80;53.20;;;;;;4972702;28;20401;-78
2021/06/05 12:17:46;;;;;;;3.10;2.90;;;25.80;53.20;;;;;;4991717;28;20432;-78
2021/06/05 12:20:34;;;;;;;2.77;2.57;;;25.80;53.10;;;;;;4987263;28;20422;-78
2021/06/05 12:23:54;;;;;;;3.00;2.73;;;25.80;53.20;;;;;;4974233;29;20394;-78
2021/06/05 12:26:26;;;;;;;3.10;2.80;;;25.80;53.20;;;;;;4951088;29;20408;-80
2021/06/05 12:29:30;;;;;;;2.90;2.70;;;25.70;53.20;;;;;;4950555;29;20402;-78
2021/06/05 12:32:10;;;;;;;2.50;2.30;;;25.80;53.20;;;;;;4915447;29;20423;-79
2021/06/05 12:34:38;;;;;;;2.80;2.60;;;25.80;53.30;;;;;;4939322;29;20415;-79
2021/06/05 12:37:15;;;;;;;3.40;3.10;;;25.80;53.20;;;;;;4939501;29;20506;-80
2021/06/05 12:39:56;;;;;;;2.80;2.60;;;25.80;53.20;;;;;;4956073;29;20434;-80
2021/06/05 12:42:35;;;;;;;2.30;2.10;;;25.80;53.20;;;;;;4940744;29;20438;-80
2021/06/05 12:45:07;;;;;;;3.30;2.10;;;25.80;53.20;;;;;;4940323;29;20437;-80
2021/06/05 12:47:37;;;;;;;2.50;2.30;;;25.80;53.20;;;;;;4957040;29;20427;-80
2021/06/05 12:50:05;;;;;;;3.00;2.70;;;25.80;53.20;;;;;;4940590;29;20438;-80
2021/06/05 12:52:34;;;;;;;3.10;2.70;;;25.80;53.20;;;;;;4955929;29;20440;-80
2021/06/05 12:55:27;;;;;;;3.13;2.67;;;25.80;53.20;;;;;;4940467;29;20458;-80
2021/06/05 12:58:13;;;;;;;2.70;2.50;;;25.80;53.20;;;;;;4958962;29;20457;-80
2021/06/05 13:00:51;;;;;;;2.97;2.67;;;25.80;53.20;;;;;;4958992;29;20458;-80
2021/06/05 13:03:24;;;;;;;3.27;2.63;;;25.80;53.10;;;;;;4991327;28;20448;-80
2021/06/05 13:06:19;;;;;;;2.97;2.63;;;25.80;53.20;;;;;;4959144;29;20444;-79
2021/06/05 13:09:15;;;;;;;3.40;3.10;;;25.80;53.20;;;;;;4993476;28;20425;-80
2021/06/05 13:11:59;;;;;;;2.60;2.40;;;25.80;53.20;;;;;;4971091;28;20791;-78
2021/06/05 13:14:32;;;;;;;3.43;3.13;;;25.80;53.20;;;;;;4986457;28;20915;-78
2021/06/05 13:17:12;;;;;;;4.23;2.70;;;25.80;53.20;;;;;;4985589;28;20418;-78
2021/06/05 13:19:45;;;;;;;3.20;2.80;;;25.80;53.30;;;;;;4956348;29;20489;-78
2021/06/05 13:22:23;;;;;;;2.80;2.53;;;25.80;53.20;;;;;;4956823;29;20417;-78
2021/06/05 13:25:12;;;;;;;2.40;2.20;;;25.80;53.20;;;;;;4972251;28;20529;-78
2021/06/05 13:27:41;;;;;;;2.50;2.30;;;25.80;53.20;;;;;;4988379;28;20421;-77
2021/06/05 13:30:23;;;;;;;4.53;2.67;;;25.80;53.20;;;;;;4989491;28;20418;-78
2021/06/05 13:32:54;;;;;;;2.60;2.40;;;25.90;53.30;;;;;;4990068;28;20457;-78
2021/06/05 13:35:42;;;;;;;2.80;2.50;;;25.80;53.20;;;;;;4957994;29;20414;-78
2021/06/05 13:38:38;;;;;;;;;;;;;;;;;;;;;
2021/06/05 13:41:05;;;;;;;2.80;2.60;;;25.80;53.10;;;;;;5013180;28;20415;-78
2021/06/05 13:43:47;;;;;;;;;;;;;;;;;;;;;
2021/06/05 13:46:16;;;;;;;3.00;2.70;;;25.80;53.20;;;;;;5013244;28;20439;-79
2021/06/05 13:48:42;;;;;;;2.83;2.47;;;25.80;53.30;;;;;;4996329;28;20566;-78